Time;durP1;ratioP1;P1;durP2;ratioP2;P2;SDS_P1;SDS_P2;PMS_P1;PMS_P2;Temp;Humidity;BMP_temperature;BMP_pressure;BME280_temperature;BME280_humidity;BME280_pressure;Samples;Min_cycle;Max_cycle;Signal;HPM_P1;HPM_P2
2022/11/27 00:01:48;;;;;;;21.10;4.68;;;;;;;5.93;100.00;102481.34;5203310;28;20030;-74
2022/11/27 00:04:19;;;;;;;16.33;4.38;;;;;;;5.94;100.00;102483.91;5202649;28;20048;-74
2022/11/27 00:06:49;;;;;;;14.27;4.55;;;;;;;5.93;100.00;102476.88;5202627;28;20079;-74
2022/11/27 00:09:20;;;;;;;14.70;4.18;;;;;;;5.89;100.00;102467.34;5199542;28;20025;-74
2022/11/27 00:11:50;;;;;;;21.95;5.22;;;;;;;5.89;100.00;102462.00;5192825;28;20049;-74
2022/11/27 00:14:21;;;;;;;25.70;5.05;;;;;;;5.91;100.00;102457.47;5202635;28;20068;-75
2022/11/27 00:16:51;;;;;;;15.80;4.72;;;;;;;5.96;100.00;102444.72;5202127;28;20075;-74
2022/11/27 00:19:22;;;;;;;16.98;4.50;;;;;;;6.04;100.00;102452.22;5202410;28;20483;-75
2022/11/27 00:21:52;;;;;;;21.27;5.88;;;;;;;6.05;100.00;102437.94;5202649;28;20021;-74
2022/11/27 00:24:23;;;;;;;18.10;4.35;;;;;;;6.05;100.00;102431.75;5203077;28;20026;-74
2022/11/27 00:26:53;;;;;;;18.17;4.47;;;;;;;6.10;100.00;102432.31;5200226;28;20395;-74
2022/11/27 00:29:27;;;;;;;17.50;5.03;;;;;;;6.18;100.00;102427.38;5190626;28;20444;-74
2022/11/27 00:31:58;;;;;;;17.37;4.50;;;;;;;6.19;100.00;102418.41;5199628;28;20013;-74
2022/11/27 00:34:28;;;;;;;16.35;5.70;;;;;;;6.21;100.00;102408.50;5202467;28;20264;-75
2022/11/27 00:36:59;;;;;;;15.18;4.97;;;;;;;6.26;100.00;102402.88;5201947;28;20021;-74
2022/11/27 00:39:30;;;;;;;19.50;4.40;;;;;;;6.29;100.00;102400.88;5202618;28;20049;-74
2022/11/27 00:42:00;;;;;;;20.15;5.78;;;;;;;6.29;100.00;102398.19;5201954;28;20044;-75
2022/11/27 00:44:31;;;;;;;22.67;5.40;;;;;;;6.30;100.00;102386.56;5202888;28;20024;-74
2022/11/27 00:47:01;;;;;;;16.33;3.85;;;;;;;6.26;100.00;102384.22;5205320;28;20063;-74
2022/11/27 00:49:32;;;;;;;14.63;5.15;;;;;;;6.27;100.00;102377.91;5205939;28;20022;-75
2022/11/27 00:52:03;;;;;;;13.73;5.45;;;;;;;6.27;100.00;102367.25;5206229;28;20037;-75
2022/11/27 00:54:33;;;;;;;18.38;5.53;;;;;;;6.26;100.00;102355.75;5205656;28;20079;-74
2022/11/27 00:57:04;;;;;;;19.98;4.90;;;;;;;6.24;100.00;102363.00;5205558;28;20084;-74
2022/11/27 00:59:34;;;;;;;16.25;4.28;;;;;;;6.28;100.00;102369.00;5201930;28;20253;-73
2022/11/27 01:02:05;;;;;;;14.55;3.70;;;;;;;6.28;100.00;102369.84;5196628;28;20108;-73
2022/11/27 01:04:35;;;;;;;16.65;5.03;;;;;;;6.28;100.00;102372.50;5204537;28;20080;-73
2022/11/27 01:07:06;;;;;;;10.27;4.28;;;;;;;6.31;100.00;102371.44;5205051;28;20466;-74
2022/11/27 01:09:36;;;;;;;14.75;4.53;;;;;;;6.30;100.00;102375.06;5205583;28;20558;-73
2022/11/27 01:12:07;;;;;;;22.23;5.32;;;;;;;6.31;100.00;102374.94;5205465;28;20467;-74
2022/11/27 01:14:37;;;;;;;16.33;3.88;;;;;;;6.32;100.00;102378.47;5205726;28;20032;-73
2022/11/27 01:17:08;;;;;;;18.45;4.80;;;;;;;6.34;100.00;102380.09;5204680;28;20104;-74
2022/11/27 01:19:38;;;;;;;14.15;3.35;;;;;;;6.35;100.00;102364.94;5205481;28;20029;-73
2022/11/27 01:22:09;;;;;;;16.58;3.95;;;;;;;6.35;100.00;102367.63;5205291;28;20124;-74
2022/11/27 01:24:39;;;;;;;8.68;3.60;;;;;;;6.36;100.00;102358.66;5205557;28;20117;-74
2022/11/27 01:27:10;;;;;;;11.43;3.20;;;;;;;6.38;100.00;102357.63;5200901;28;20492;-74
2022/11/27 01:29:40;;;;;;;11.73;3.35;;;;;;;6.40;100.00;102344.16;5195772;28;20030;-72
2022/11/27 01:32:11;;;;;;;14.25;3.22;;;;;;;6.37;100.00;102350.53;5201911;28;20084;-73
2022/11/27 01:34:41;;;;;;;8.57;2.70;;;;;;;6.37;100.00;102347.88;5205455;28;20022;-74
2022/11/27 01:37:12;;;;;;;11.32;3.35;;;;;;;6.35;100.00;102352.47;5204622;28;20068;-73
2022/11/27 01:39:42;;;;;;;12.52;3.35;;;;;;;6.36;100.00;102340.00;5205486;28;20391;-74
2022/11/27 01:42:12;;;;;;;7.22;2.75;;;;;;;6.35;100.00;102351.63;5204744;28;20065;-73
2022/11/27 01:44:48;;;;;;;10.07;3.35;;;;;;;6.34;100.00;102340.09;5205046;28;20036;-74
2022/11/27 01:47:31;;;;;;;9.60;3.75;;;;;;;6.31;100.00;102336.78;5204859;28;20025;-74
2022/11/27 01:50:09;;;;;;;13.55;2.90;;;;;;;6.30;100.00;102329.75;5205049;28;20044;-74
2022/11/27 01:52:45;;;;;;;10.32;3.15;;;;;;;6.27;100.00;102317.47;5204642;28;20078;-74
2022/11/27 01:55:45;;;;;;;10.43;2.90;;;;;;;6.27;100.00;102306.81;5204772;28;20028;-73
2022/11/27 01:58:20;;;;;;;11.38;4.35;;;;;;;6.27;100.00;102303.28;5202583;28;20033;-73
2022/11/27 02:00:51;;;;;;;7.63;2.83;;;;;;;6.27;100.00;102293.47;5204838;28;20113;-73
2022/11/27 02:03:22;;;;;;;12.38;3.10;;;;;;;6.27;100.00;102281.97;5204078;28;20156;-74
2022/11/27 02:05:52;;;;;;;12.65;2.65;;;;;;;6.24;100.00;102275.06;5205069;28;20025;-73
2022/11/27 02:08:23;;;;;;;9.77;2.22;;;;;;;6.25;100.00;102266.09;5204518;28;20021;-74
2022/11/27 02:11:08;;;;;;;7.22;3.30;;;;;;;6.27;100.00;102263.31;5204710;28;20029;-74
2022/11/27 02:13:47;;;;;;;8.63;2.33;;;;;;;6.28;100.00;102260.56;5204693;28;20547;-74
2022/11/27 02:16:30;;;;;;;9.93;2.05;;;;;;;6.27;100.00;102256.16;5203578;28;20786;-75
2022/11/27 02:19:18;;;;;;;5.43;2.35;;;;;;;6.26;100.00;102250.94;5191045;28;20025;-74
2022/11/27 02:21:59;;;;;;;7.72;2.10;;;;;;;6.23;100.00;102252.88;5204390;28;20124;-75
2022/11/27 02:24:53;;;;;;;7.18;2.58;;;;;;;6.21;100.00;102256.59;5204756;28;20059;-74
2022/11/27 02:27:33;;;;;;;9.80;2.35;;;;;;;6.20;100.00;102255.75;5196482;28;20022;-75
2022/11/27 02:30:05;;;;;;;9.55;2.30;;;;;;;6.23;100.00;102265.34;5198118;28;20025;-75
2022/11/27 02:32:42;;;;;;;12.38;2.10;;;;;;;6.25;100.00;102260.75;5201384;28;20104;-75
2022/11/27 02:35:25;;;;;;;8.63;2.03;;;;;;;6.25;100.00;102263.44;5204249;28;20395;-74
2022/11/27 02:38:01;;;;;;;14.27;3.10;;;;;;;6.25;100.00;102265.25;5204414;28;20028;-74
2022/11/27 02:40:55;;;;;;;6.82;2.47;;;;;;;6.22;100.00;102264.50;5203897;28;20053;-74
2022/11/27 02:43:32;;;;;;;5.50;2.30;;;;;;;6.21;100.00;102254.78;5204086;28;20018;-75
2022/11/27 02:46:05;;;;;;;10.35;2.00;;;;;;;6.24;100.00;102259.06;5204466;28;20056;-75
2022/11/27 02:48:47;;;;;;;4.65;1.95;;;;;;;6.25;100.00;102265.25;5203625;28;20033;-75
2022/11/27 02:51:37;;;;;;;7.70;2.40;;;;;;;6.27;100.00;102250.84;5204297;28;20033;-75
2022/11/27 02:54:14;;;;;;;9.02;2.55;;;;;;;6.27;100.00;102252.66;5204148;28;20279;-74
2022/11/27 02:56:48;;;;;;;10.02;3.25;;;;;;;6.31;100.00;102263.00;5203814;28;20026;-75
2022/11/27 02:59:22;;;;;;;7.15;2.40;;;;;;;6.29;100.00;102261.41;5203477;28;20021;-74
2022/11/27 03:01:59;;;;;;;6.25;2.83;;;;;;;6.26;100.00;102251.81;5203936;28;20386;-74
2022/11/27 03:04:40;;;;;;;8.73;2.17;;;;;;;6.25;100.00;102255.44;5203990;28;20308;-74
2022/11/27 03:07:17;;;;;;;8.32;2.60;;;;;;;6.25;100.00;102252.75;5202135;28;20053;-75
2022/11/27 03:09:52;;;;;;;11.73;2.72;;;;;;;6.24;100.00;102253.72;5203160;28;20528;-74
2022/11/27 03:12:23;;;;;;;10.57;2.78;;;;;;;6.26;100.00;102250.94;5190167;28;20026;-74
2022/11/27 03:14:54;;;;;;;8.02;2.17;;;;;;;6.27;100.00;102256.16;5194857;28;20556;-74
2022/11/27 03:17:49;;;;;;;7.57;2.28;;;;;;;6.25;100.00;102254.59;5199014;28;20029;-75
2022/11/27 03:20:27;;;;;;;5.30;2.42;;;;;;;6.25;100.00;102246.59;5203273;28;20034;-74
2022/11/27 03:22:58;;;;;;;8.90;2.47;;;;;;;6.23;100.00;102257.34;5203401;28;20036;-74
2022/11/27 03:25:28;;;;;;;4.60;2.08;;;;;;;6.19;100.00;102256.69;5203312;28;20017;-75
2022/11/27 03:28:03;;;;;;;5.93;2.30;;;;;;;6.18;100.00;102257.66;5202968;28;20037;-74
2022/11/27 03:30:34;;;;;;;9.45;2.42;;;;;;;6.21;100.00;102246.78;5203040;28;20033;-75
2022/11/27 03:33:04;;;;;;;9.15;2.45;;;;;;;6.24;100.00;102261.72;5200276;28;20037;-75
2022/11/27 03:35:36;;;;;;;6.03;2.00;;;;;;;6.22;100.00;102266.28;5203166;28;20021;-75
2022/11/27 03:38:06;;;;;;;9.02;2.60;;;;;;;6.25;100.00;102259.91;5202792;28;20108;-75
2022/11/27 03:41:06;;;;;;;9.32;3.70;;;;;;;6.24;100.00;102264.38;5203499;28;20546;-75
2022/11/27 03:44:11;;;;;;;5.65;2.10;;;;;;;6.27;100.00;102261.50;5203058;28;20053;-74
2022/11/27 03:46:49;;;;;;;6.72;2.25;;;;;;;6.25;100.00;102260.75;5203132;28;20025;-75
2022/11/27 03:49:43;;;;;;;13.70;2.72;;;;;;;6.26;100.00;102261.63;5202842;28;20021;-74
2022/11/27 03:52:32;;;;;;;8.23;2.65;;;;;;;6.23;100.00;102262.69;5202600;28;20041;-75
2022/11/27 03:55:27;;;;;;;8.05;2.45;;;;;;;6.25;100.00;102259.91;5203067;28;20029;-74
2022/11/27 03:58:07;;;;;;;5.47;2.10;;;;;;;6.22;100.00;102252.97;5202570;28;20422;-73
2022/11/27 04:00:41;;;;;;;7.80;2.40;;;;;;;6.30;100.00;102257.78;5203049;28;20422;-74
2022/11/27 04:03:12;;;;;;;8.32;2.58;;;;;;;6.27;100.00;102248.16;5202867;28;20438;-74
2022/11/27 04:05:43;;;;;;;5.47;1.98;;;;;;;6.27;100.00;102250.84;5202754;28;20091;-73
2022/11/27 04:08:13;;;;;;;5.43;1.95;;;;;;;6.31;100.00;102251.50;5201914;28;20738;-74
2022/11/27 04:10:44;;;;;;;11.32;2.45;;;;;;;6.34;100.00;102260.16;5201337;28;20013;-73
2022/11/27 04:13:15;;;;;;;6.78;2.63;;;;;;;6.34;100.00;102265.47;5191303;28;20053;-74
2022/11/27 04:15:46;;;;;;;9.98;2.75;;;;;;;6.36;100.00;102258.22;5203262;28;20023;-74
2022/11/27 04:18:17;;;;;;;8.77;2.70;;;;;;;6.36;100.00;102260.88;5202275;28;20486;-75
2022/11/27 04:20:47;;;;;;;6.18;3.05;;;;;;;6.43;100.00;102264.84;5204190;28;20091;-75
2022/11/27 04:23:18;;;;;;;10.90;3.53;;;;;;;6.43;100.00;102248.84;5205531;28;20386;-74
2022/11/27 04:25:49;;;;;;;8.77;2.83;;;;;;;6.41;100.00;102247.25;5206522;28;20059;-75
2022/11/27 04:28:19;;;;;;;10.88;3.42;;;;;;;6.37;100.00;102238.59;5192661;28;20025;-75
2022/11/27 04:30:52;;;;;;;6.18;3.05;;;;;;;6.39;100.00;102230.50;5206813;28;20021;-75
2022/11/27 04:33:23;;;;;;;13.30;4.38;;;;;;;6.39;100.00;102228.69;5206777;28;20030;-74
2022/11/27 04:35:53;;;;;;;8.40;2.83;;;;;;;6.46;100.00;102237.97;5206544;28;20139;-74
2022/11/27 04:38:24;;;;;;;8.80;2.88;;;;;;;6.46;100.00;102226.44;5205827;28;20017;-74
2022/11/27 04:40:54;;;;;;;7.32;2.92;;;;;;;6.47;100.00;102236.16;5206550;28;20031;-74
2022/11/27 04:43:25;;;;;;;13.13;3.10;;;;;;;6.44;100.00;102225.72;5206972;28;20025;-74
2022/11/27 04:45:56;;;;;;;9.85;2.88;;;;;;;6.41;100.00;102225.91;5206543;28;20475;-75
2022/11/27 04:48:26;;;;;;;10.15;3.20;;;;;;;6.41;100.00;102225.91;5206176;28;20025;-75
2022/11/27 04:50:57;;;;;;;7.65;2.85;;;;;;;6.36;100.00;102220.91;5206428;28;20036;-75
2022/11/27 04:53:28;;;;;;;9.73;3.28;;;;;;;6.34;100.00;102216.66;5205989;28;20061;-75
2022/11/27 04:55:59;;;;;;;10.80;2.97;;;;;;;6.33;100.00;102223.78;5205605;28;20041;-75
2022/11/27 04:58:29;;;;;;;12.73;3.60;;;;;;;6.33;100.00;102226.47;5205390;28;20025;-75
2022/11/27 05:01:00;;;;;;;11.63;3.28;;;;;;;6.30;100.00;102229.31;5205836;28;20017;-75
2022/11/27 05:03:30;;;;;;;11.10;3.65;;;;;;;6.28;100.00;102217.06;5206032;28;20022;-74
2022/11/27 05:06:02;;;;;;;10.68;4.03;;;;;;;6.30;100.00;102229.31;5204468;28;20022;-74
2022/11/27 05:08:33;;;;;;;12.52;3.92;;;;;;;6.27;100.00;102221.53;5204792;28;20029;-74
2022/11/27 05:11:10;;;;;;;14.60;3.67;;;;;;;6.31;100.00;102211.50;5205659;28;20022;-74
2022/11/27 05:13:42;;;;;;;11.55;4.45;;;;;;;6.31;100.00;102212.38;5205962;28;20498;-74
2022/11/27 05:16:12;;;;;;;10.80;3.67;;;;;;;6.27;100.00;102213.53;5205542;28;20026;-74
2022/11/27 05:18:43;;;;;;;13.18;4.18;;;;;;;6.24;100.00;102208.44;5204918;28;20028;-75
2022/11/27 05:21:13;;;;;;;13.55;3.90;;;;;;;6.25;100.00;102214.59;5203794;28;20025;-74
2022/11/27 05:23:43;;;;;;;13.73;4.35;;;;;;;6.21;100.00;102201.47;5204262;28;20113;-75
2022/11/27 05:26:14;;;;;;;10.15;3.72;;;;;;;6.23;100.00;102198.72;5205339;28;20437;-73
2022/11/27 05:28:44;;;;;;;12.60;4.15;;;;;;;6.21;100.00;102193.47;5204854;28;20025;-73
2022/11/27 05:31:15;;;;;;;13.10;4.22;;;;;;;6.19;100.00;102190.09;5201963;28;20132;-75
2022/11/27 05:33:45;;;;;;;14.90;3.88;;;;;;;6.16;100.00;102179.63;5205715;28;20053;-74
2022/11/27 05:36:16;;;;;;;10.50;3.95;;;;;;;6.16;100.00;102179.63;5205306;28;20064;-74
2022/11/27 05:38:46;;;;;;;15.43;4.43;;;;;;;6.15;100.00;102180.59;5204736;28;20025;-74
2022/11/27 05:41:17;;;;;;;19.33;4.22;;;;;;;6.14;100.00;102175.38;5205697;28;20078;-75
2022/11/27 05:43:47;;;;;;;17.25;3.72;;;;;;;6.13;100.00;102173.66;5204973;28;20017;-75
2022/11/27 05:46:20;;;;;;;17.42;4.80;;;;;;;6.10;100.00;102168.53;5204905;28;20430;-75
2022/11/27 05:48:50;;;;;;;13.32;4.78;;;;;;;6.07;100.00;102158.94;5204618;28;20068;-75
2022/11/27 05:51:21;;;;;;;11.52;4.32;;;;;;;6.06;100.00;102162.56;5205149;28;20071;-74
2022/11/27 05:53:52;;;;;;;10.60;4.32;;;;;;;6.07;100.00;102147.44;5204912;28;20033;-74
2022/11/27 05:56:22;;;;;;;16.17;4.72;;;;;;;6.03;100.00;102148.63;5204405;28;20048;-73
2022/11/27 05:58:53;;;;;;;20.02;4.80;;;;;;;6.01;100.00;102142.53;5204442;28;20410;-73
2022/11/27 06:01:23;;;;;;;21.60;4.57;;;;;;;6.02;100.00;102136.22;5204739;28;20517;-73
2022/11/27 06:03:54;;;;;;;12.88;4.50;;;;;;;5.97;100.00;102128.56;5204754;28;20022;-73
2022/11/27 06:06:24;;;;;;;19.08;4.38;;;;;;;5.99;100.00;102131.13;5204942;28;20013;-73
2022/11/27 06:08:55;;;;;;;13.45;4.43;;;;;;;5.95;100.00;102127.81;5203901;28;20029;-73
2022/11/27 06:11:26;;;;;;;15.57;4.97;;;;;;;5.95;100.00;102118.00;5204816;28;20025;-73
2022/11/27 06:13:56;;;;;;;15.60;4.63;;;;;;;5.97;100.00;102121.44;5204338;28;20025;-72
2022/11/27 06:16:27;;;;;;;16.55;5.30;;;;;;;6.01;100.00;102119.41;5204506;28;20525;-73
2022/11/27 06:18:57;;;;;;;15.07;4.78;;;;;;;6.01;100.00;102116.72;5204047;28;20383;-73
2022/11/27 06:21:28;;;;;;;17.65;4.80;;;;;;;6.01;100.00;102121.22;5195195;28;20439;-73
2022/11/27 06:23:59;;;;;;;19.98;4.15;;;;;;;6.00;100.00;102114.19;5192571;28;20025;-73
2022/11/27 06:26:32;;;;;;;24.25;5.00;;;;;;;6.03;100.00;102109.50;5203496;28;20482;-73
2022/11/27 06:29:03;;;;;;;16.80;4.93;;;;;;;6.05;100.00;102109.38;5189654;28;20036;-72
2022/11/27 06:31:34;;;;;;;20.88;4.60;;;;;;;6.03;100.00;102108.66;5200059;28;20108;-73
2022/11/27 06:34:05;;;;;;;21.95;5.18;;;;;;;6.04;100.00;102102.38;5202666;28;20051;-73
2022/11/27 06:36:37;;;;;;;17.95;5.68;;;;;;;6.04;100.00;102097.88;5200973;28;20025;-72
2022/11/27 06:39:10;;;;;;;16.08;5.68;;;;;;;6.05;100.00;102088.94;5190787;28;20025;-73
2022/11/27 06:41:42;;;;;;;15.65;4.85;;;;;;;6.06;100.00;102101.28;5202058;28;20025;-73
2022/11/27 06:44:12;;;;;;;19.50;5.43;;;;;;;6.06;100.00;102089.78;5201948;28;20070;-73
2022/11/27 06:46:43;;;;;;;18.80;5.57;;;;;;;6.07;100.00;102084.34;5202127;28;20029;-73
2022/11/27 06:49:13;;;;;;;16.60;4.47;;;;;;;6.05;100.00;102086.25;5202526;28;20439;-73
2022/11/27 06:51:44;;;;;;;19.88;4.55;;;;;;;6.06;100.00;102079.13;5202572;28;20482;-74
2022/11/27 06:54:14;;;;;;;15.55;4.95;;;;;;;6.02;100.00;102075.81;5202715;28;20056;-73
2022/11/27 06:56:45;;;;;;;14.43;5.13;;;;;;;6.07;100.00;102070.16;5202227;28;20049;-73
2022/11/27 06:59:15;;;;;;;26.75;5.05;;;;;;;6.09;100.00;102062.94;5189458;28;20040;-73
2022/11/27 07:01:46;;;;;;;22.75;5.45;;;;;;;6.06;100.00;102066.66;5202195;28;20053;-73
2022/11/27 07:04:16;;;;;;;16.17;4.93;;;;;;;6.09;100.00;102058.44;5202572;28;20025;-73
2022/11/27 07:06:47;;;;;;;14.35;4.65;;;;;;;6.06;100.00;102063.97;5202277;28;20133;-73
2022/11/27 07:11:15;;;;;;;20.48;4.90;;;;;;;6.07;100.00;102056.84;5240478;28;20391;-72
2022/11/27 07:13:46;;;;;;;20.45;5.40;;;;;;;6.08;100.00;102059.41;5239247;28;20041;-72
2022/11/27 07:16:17;;;;;;;20.88;5.65;;;;;;;6.10;100.00;102060.16;5240348;28;20031;-72
2022/11/27 07:18:50;;;;;;;14.30;4.75;;;;;;;6.11;100.00;102056.53;5228786;28;20029;-72
2022/11/27 07:21:20;;;;;;;18.02;4.95;;;;;;;6.11;100.00;102056.53;5219529;28;20017;-72
2022/11/27 07:23:51;;;;;;;24.50;5.82;;;;;;;6.14;100.00;102060.81;5219207;28;20181;-72
2022/11/27 07:26:24;;;;;;;18.65;4.70;;;;;;;6.14;100.00;102056.31;5219410;28;20021;-72
2022/11/27 07:28:55;;;;;;;11.45;4.43;;;;;;;6.17;100.00;102057.91;5205722;28;20013;-72
2022/11/27 07:31:28;;;;;;;17.23;5.22;;;;;;;6.18;100.00;102056.97;5219213;28;20063;-73
2022/11/27 07:33:59;;;;;;;11.27;4.65;;;;;;;6.22;100.00;102047.75;5219296;28;20033;-73
2022/11/27 07:36:30;;;;;;;16.02;5.60;;;;;;;6.23;100.00;102041.50;5218799;28;20375;-72
2022/11/27 07:39:00;;;;;;;13.15;4.30;;;;;;;6.22;100.00;102037.97;5219162;28;20029;-73
2022/11/27 07:41:31;;;;;;;13.70;4.70;;;;;;;6.22;100.00;102035.31;5219313;28;20039;-73
2022/11/27 07:44:01;;;;;;;12.30;5.03;;;;;;;6.26;100.00;102035.94;5219387;28;20104;-73
2022/11/27 07:46:32;;;;;;;12.50;3.92;;;;;;;6.26;100.00;102033.28;5218952;28;20032;-73
2022/11/27 07:49:02;;;;;;;13.05;4.63;;;;;;;6.28;100.00;102036.69;5218549;28;20028;-72
2022/11/27 07:51:33;;;;;;;18.65;4.80;;;;;;;6.30;100.00;102034.75;5219115;28;20039;-73
2022/11/27 07:54:03;;;;;;;12.25;4.65;;;;;;;6.33;100.00;102034.56;5219172;28;20108;-73
2022/11/27 07:56:34;;;;;;;13.60;4.13;;;;;;;6.33;100.00;102037.22;5217912;28;20032;-73
2022/11/27 07:59:04;;;;;;;13.13;4.20;;;;;;;6.35;100.00;102037.94;5218770;28;20021;-73
2022/11/27 08:01:35;;;;;;;9.77;3.90;;;;;;;6.39;100.00;102039.44;5218261;28;20519;-73
2022/11/27 08:04:05;;;;;;;16.40;4.70;;;;;;;6.45;100.00;102035.47;5219158;28;20028;-73
2022/11/27 08:06:36;;;;;;;13.98;3.95;;;;;;;6.42;100.00;102033.00;5219376;28;20505;-73
2022/11/27 08:09:06;;;;;;;11.20;4.28;;;;;;;6.39;100.00;102028.78;5218441;28;20175;-73
2022/11/27 08:11:38;;;;;;;15.00;4.55;;;;;;;6.43;100.00;102029.41;5218609;28;20548;-74
2022/11/27 08:14:09;;;;;;;14.90;4.40;;;;;;;6.44;100.00;102020.44;5218537;28;20029;-73
2022/11/27 08:16:40;;;;;;;13.05;4.05;;;;;;;6.46;100.00;102031.84;5218613;28;20198;-73
2022/11/27 08:19:10;;;;;;;13.73;4.07;;;;;;;6.50;100.00;102025.34;5218387;28;20112;-73
2022/11/27 08:21:41;;;;;;;12.40;4.07;;;;;;;6.45;100.00;102017.66;5209337;28;20108;-73
2022/11/27 08:24:11;;;;;;;15.07;5.10;;;;;;;6.49;100.00;102018.31;5205078;28;20109;-73
2022/11/27 08:26:42;;;;;;;17.10;4.10;;;;;;;6.49;100.00;102013.81;5204493;28;20037;-74
2022/11/27 08:29:12;;;;;;;11.80;4.45;;;;;;;6.49;100.00;102023.63;5191829;28;20482;-73
2022/11/27 08:31:43;;;;;;;13.20;3.92;;;;;;;6.49;100.00;102015.63;5204336;28;20375;-73
2022/11/27 08:34:13;;;;;;;14.30;3.78;;;;;;;6.51;100.00;102010.19;5204710;28;20422;-73
2022/11/27 08:36:44;;;;;;;12.07;3.83;;;;;;;6.47;100.00;102007.72;5204448;28;20025;-73
2022/11/27 08:39:14;;;;;;;11.02;4.18;;;;;;;6.51;100.00;102000.38;5204288;28;20021;-73
2022/11/27 08:41:45;;;;;;;13.95;4.03;;;;;;;6.53;100.00;101997.59;5204132;28;20025;-73
2022/11/27 08:44:15;;;;;;;15.05;4.32;;;;;;;6.58;100.00;101990.13;5204433;28;20082;-73
2022/11/27 08:46:46;;;;;;;12.00;4.18;;;;;;;6.61;100.00;101995.22;5204116;28;20033;-73
2022/11/27 08:49:16;;;;;;;11.40;3.80;;;;;;;6.64;100.00;101997.66;5202644;28;20055;-73
2022/11/27 08:51:47;;;;;;;13.65;4.50;;;;;;;6.61;100.00;101990.72;5204465;28;20057;-73
2022/11/27 08:54:17;;;;;;;16.35;5.07;;;;;;;6.67;100.00;101992.94;5203222;28;20106;-73
2022/11/27 08:56:48;;;;;;;9.52;4.38;;;;;;;6.66;100.00;101988.56;5203981;28;20024;-73
2022/11/27 08:59:18;;;;;;;12.57;4.57;;;;;;;6.71;100.00;101996.25;5204280;28;20029;-73
2022/11/27 09:01:49;;;;;;;13.85;4.30;;;;;;;6.71;100.00;101997.09;5203692;28;20044;-73
2022/11/27 09:04:19;;;;;;;15.45;4.65;;;;;;;6.71;100.00;101991.75;5204248;28;20021;-73
2022/11/27 09:06:49;;;;;;;13.07;4.22;;;;;;;6.80;100.00;101990.22;5203868;28;20021;-73
2022/11/27 09:09:20;;;;;;;11.15;4.38;;;;;;;6.80;100.00;101992.91;5203774;28;20541;-73
2022/11/27 09:11:53;;;;;;;9.73;3.88;;;;;;;6.86;100.00;101991.59;5203902;28;20431;-73
2022/11/27 09:14:23;;;;;;;14.13;4.80;;;;;;;6.85;100.00;101993.41;5203458;28;20553;-73
2022/11/27 09:16:54;;;;;;;12.02;4.10;;;;;;;6.86;100.00;101988.91;5203882;28;20025;-73
2022/11/27 09:19:24;;;;;;;14.57;4.28;;;;;;;6.82;100.00;101990.94;5203774;28;20045;-73
2022/11/27 09:21:55;;;;;;;11.50;4.10;;;;;;;6.84;100.00;101989.03;5203655;28;20091;-72
2022/11/27 09:24:25;;;;;;;9.85;4.50;;;;;;;6.87;100.00;101987.94;5204180;28;20025;-73
2022/11/27 09:26:56;;;;;;;10.82;4.70;;;;;;;6.88;100.00;101987.84;5203445;28;20087;-73
2022/11/27 09:29:26;;;;;;;15.00;4.85;;;;;;;6.88;100.00;101981.66;5202676;28;20467;-73
2022/11/27 09:31:57;;;;;;;14.45;4.55;;;;;;;6.90;100.00;101993.06;5207117;28;20224;-73
2022/11/27 09:34:27;;;;;;;8.35;3.90;;;;;;;6.85;100.00;101987.22;5203091;28;20025;-73
2022/11/27 09:36:58;;;;;;;12.75;5.03;;;;;;;6.84;100.00;101981.03;5202928;28;20021;-73
2022/11/27 09:39:32;;;;;;;10.05;4.30;;;;;;;6.87;100.00;101974.59;5203172;28;20573;-73
2022/11/27 09:42:05;;;;;;;14.15;4.78;;;;;;;6.84;100.00;101966.84;5203545;28;20086;-73
2022/11/27 09:44:44;;;;;;;14.80;4.72;;;;;;;6.81;100.00;101957.25;5203400;28;20088;-73
2022/11/27 09:47:32;;;;;;;13.32;4.28;;;;;;;6.80;100.00;101960.88;5203697;28;20463;-73
2022/11/27 09:50:18;;;;;;;12.23;5.00;;;;;;;6.82;100.00;101956.28;5202921;28;20057;-72
2022/11/27 09:53:30;;;;;;;10.65;4.28;;;;;;;6.74;100.00;101964.03;5203270;28;20541;-73
2022/11/27 09:56:05;;;;;;;13.20;4.43;;;;;;;6.78;100.00;101957.50;5202316;28;20037;-73
2022/11/27 09:58:40;;;;;;;7.63;4.40;;;;;;;6.77;100.00;101955.78;5203056;28;20053;-73
2022/11/27 10:01:17;;;;;;;11.48;4.43;;;;;;;6.75;100.00;101944.38;5202677;28;20119;-73
2022/11/27 10:03:47;;;;;;;15.93;4.57;;;;;;;6.73;100.00;101946.31;5201282;28;20060;-74
2022/11/27 10:06:22;;;;;;;14.05;4.85;;;;;;;6.77;100.00;101937.09;5201630;28;20033;-73
2022/11/27 10:09:11;;;;;;;11.70;4.22;;;;;;;6.72;100.00;101939.25;5219284;28;20106;-73
2022/11/27 10:12:04;;;;;;;13.60;4.28;;;;;;;6.72;100.00;101942.78;5209969;28;20040;-73
2022/11/27 10:14:52;;;;;;;14.07;4.90;;;;;;;6.73;100.00;101936.50;5204228;28;20229;-73
2022/11/27 10:17:55;;;;;;;8.85;4.13;;;;;;;6.71;100.00;101922.41;5213702;28;20060;-73
2022/11/27 10:20:35;;;;;;;17.27;4.90;;;;;;;6.73;100.00;101919.66;5209029;28;20037;-73
2022/11/27 10:23:20;;;;;;;15.55;4.85;;;;;;;6.77;100.00;101910.44;5206899;28;20021;-73
2022/11/27 10:25:55;;;;;;;14.95;4.78;;;;;;;6.87;100.00;101913.25;5205700;28;20024;-73
2022/11/27 10:28:41;;;;;;;13.25;4.90;;;;;;;6.85;100.00;101912.53;5213262;28;20043;-73
2022/11/27 10:31:32;;;;;;;14.15;4.82;;;;;;;6.94;100.00;101910.03;5208755;28;20025;-73
2022/11/27 10:34:28;;;;;;;11.93;4.90;;;;;;;6.91;100.00;101899.56;5210796;28;20087;-73
2022/11/27 10:37:01;;;;;;;12.60;5.20;;;;;;;6.91;100.00;101902.25;5205300;28;20067;-73
2022/11/27 10:39:43;;;;;;;17.70;4.65;;;;;;;6.92;100.00;101890.59;5217181;28;20078;-73
2022/11/27 10:42:34;;;;;;;14.68;4.38;;;;;;;6.95;100.00;101892.19;5213886;28;20393;-73
2022/11/27 10:45:16;;;;;;;10.90;4.38;;;;;;;6.89;100.00;101877.50;5200844;28;20057;-73
2022/11/27 10:47:47;;;;;;;15.32;5.82;;;;;;;6.90;100.00;101875.69;5207622;28;20064;-73
2022/11/27 10:50:18;;;;;;;11.35;5.05;;;;;;;6.91;100.00;101878.22;5213504;28;20122;-74
2022/11/27 10:52:54;;;;;;;14.32;5.65;;;;;;;6.91;100.00;101878.22;5203331;28;20030;-73
2022/11/27 10:55:40;;;;;;;12.27;5.15;;;;;;;6.91;100.00;101880.91;5203464;28;20044;-72
2022/11/27 10:58:27;;;;;;;17.50;4.90;;;;;;;6.92;100.00;101871.91;5206153;28;20407;-73
2022/11/27 11:01:09;;;;;;;15.77;5.22;;;;;;;6.95;100.00;101876.19;5211610;28;20078;-73
2022/11/27 11:03:39;;;;;;;15.38;5.57;;;;;;;6.96;100.00;101867.22;5215795;28;20033;-73
2022/11/27 11:06:23;;;;;;;17.63;5.32;;;;;;;7.07;100.00;101858.38;5216348;28;20544;-73
2022/11/27 11:09:11;;;;;;;12.35;5.43;;;;;;;7.06;100.00;101856.69;5213615;28;20539;-73
2022/11/27 11:11:42;;;;;;;16.52;6.10;;;;;;;7.05;100.00;101849.66;5209103;28;20107;-73
2022/11/27 11:14:24;;;;;;;13.43;5.18;;;;;;;7.07;100.00;101845.88;5207027;28;20653;-73
2022/11/27 11:16:54;;;;;;;15.65;5.85;;;;;;;7.15;100.00;101832.78;5219971;28;20036;-73
2022/11/27 11:19:30;;;;;;;14.10;4.43;;;;;;;7.18;100.00;101834.41;5209921;28;20021;-73
2022/11/27 11:22:13;;;;;;;15.70;5.15;;;;;;;7.14;100.00;101822.25;5207405;28;21011;-73
2022/11/27 11:24:50;;;;;;;17.90;5.40;;;;;;;7.18;100.00;101821.91;5210152;28;20025;-73
2022/11/27 11:27:29;;;;;;;11.88;5.38;;;;;;;7.22;100.00;101819.81;5207612;28;20059;-73
2022/11/27 11:30:04;;;;;;;10.65;4.70;;;;;;;7.26;100.00;101821.28;5215958;28;20017;-72
2022/11/27 11:32:36;;;;;;;;;;;;;;;7.22;100.00;101809.13;5202872;28;20060;-73
2022/11/27 11:35:43;;;;;;;12.98;4.32;;;;;;;7.26;100.00;101797.25;5210728;28;19912;-73
2022/11/27 11:38:17;;;;;;;13.43;4.75;;;;;;;7.29;100.00;101783.69;5176237;28;20057;-73
2022/11/27 11:41:17;;;;;;;12.60;4.47;;;;;;;7.36;100.00;101781.34;5202931;28;20049;-73
2022/11/27 11:44:00;;;;;;;19.67;5.10;;;;;;;7.37;100.00;101780.38;5196428;28;20048;-74
2022/11/27 11:46:35;;;;;;;12.02;5.05;;;;;;;7.44;100.00;101782.44;5205087;28;20472;-74
2022/11/27 11:49:17;;;;;;;10.93;5.00;;;;;;;7.56;100.00;101779.75;5212863;28;20489;-74
2022/11/27 11:52:15;;;;;;;12.75;5.20;;;;;;;7.57;100.00;101776.09;5206918;28;20026;-74
2022/11/27 11:55:13;;;;;;;13.70;5.38;;;;;;;7.67;100.00;101775.22;5210504;28;20029;-75